Terminal Aerodrome Forecast
Issued by NWS Mt. Holly, NJ

Home | Current Version | Previous Version | Text Only | Print | Product List | Glossary On
Versions: 1 2 3 4 5 6 7 8 9 10 11 12 13 14 15 16 17
000
FTUS41 KPHI 050537
TAFILG
TAF
KILG 050537Z 0506/0606 07008KT P6SM BKN025
      TEMPO 0506/0508 SCT025
     FM050800 05010KT P6SM BKN015
     FM051500 07008KT P6SM BKN025
     FM051700 09010KT P6SM BKN035
     FM052100 13008KT P6SM SCT045
     FM060300 05004KT P6SM SKC=

USA.gov is the U.S. government's official web portal to all federal, state and local government web resources and services.